createdAt,value
2019-03-15T00:00:41.205Z,2.67
2019-03-15T00:03:44.941Z,3.07
2019-03-15T00:06:48.606Z,3.05
2019-03-15T00:09:52.530Z,3.10
2019-03-15T00:12:56.585Z,2.53
2019-03-15T00:16:00.266Z,3.13
2019-03-15T00:19:04.390Z,2.90
2019-03-15T00:22:08.053Z,3.10
2019-03-15T00:25:11.773Z,2.70
2019-03-15T00:28:16.441Z,2.97
2019-03-15T00:31:20.215Z,3.43
2019-03-15T00:34:23.876Z,3.13
2019-03-15T00:37:27.558Z,2.70
2019-03-15T00:40:31.205Z,2.87
2019-03-15T00:43:34.847Z,2.83
2019-03-15T00:46:38.549Z,3.33
2019-03-15T00:49:42.491Z,2.90
2019-03-15T00:52:46.158Z,3.00
2019-03-15T00:55:49.820Z,2.97
2019-03-15T00:58:53.553Z,3.00
2019-03-15T01:01:57.236Z,3.07
2019-03-15T01:05:00.931Z,3.10
2019-03-15T01:08:04.845Z,3.20
2019-03-15T01:11:08.486Z,3.70
2019-03-15T01:14:12.145Z,2.90
2019-03-15T01:17:15.819Z,3.23
2019-03-15T01:20:19.486Z,3.33
2019-03-15T01:23:24.284Z,2.93
2019-03-15T01:26:28.021Z,3.43
2019-03-15T01:29:31.712Z,3.40
2019-03-15T01:32:35.756Z,3.23
2019-03-15T01:35:39.392Z,3.43
2019-03-15T01:38:43.065Z,3.73
2019-03-15T01:41:46.747Z,3.97
2019-03-15T01:44:50.642Z,3.52
2019-03-15T01:47:54.554Z,3.40
2019-03-15T01:50:58.219Z,3.37
2019-03-15T01:54:01.912Z,3.67
2019-03-15T01:57:05.597Z,3.60
2019-03-15T02:00:10.180Z,3.93
2019-03-15T02:03:13.926Z,3.93
2019-03-15T02:06:17.696Z,3.73
2019-03-15T02:09:21.610Z,3.73
2019-03-15T02:12:25.244Z,3.60
2019-03-15T02:15:29.828Z,4.50
2019-03-15T02:18:33.497Z,3.97
2019-03-15T02:21:37.404Z,3.63
2019-03-15T02:24:41.085Z,3.47
2019-03-15T02:27:44.708Z,3.37
2019-03-15T02:30:48.435Z,3.73
2019-03-15T02:33:52.195Z,3.67
2019-03-15T02:36:55.877Z,4.03
2019-03-15T02:39:59.587Z,3.80
2019-03-15T02:43:03.605Z,3.67
2019-03-15T02:46:07.658Z,3.60
2019-03-15T02:49:11.290Z,3.47
2019-03-15T02:52:15.807Z,4.20
2019-03-15T02:55:21.094Z,3.43
2019-03-15T02:58:25.001Z,3.77
2019-03-15T03:01:28.701Z,3.83
2019-03-15T03:04:32.333Z,3.70
2019-03-15T03:07:36.038Z,3.90
2019-03-15T03:10:39.713Z,3.70
2019-03-15T03:13:43.399Z,3.47
2019-03-15T03:16:47.319Z,3.37
2019-03-15T03:19:50.956Z,3.30
2019-03-15T03:22:54.881Z,3.40
2019-03-15T03:25:58.541Z,2.97
2019-03-15T03:29:02.447Z,3.43
2019-03-15T03:32:06.487Z,3.33
2019-03-15T03:35:10.856Z,3.58
2019-03-15T03:38:15.233Z,2.87
2019-03-15T03:41:19.005Z,3.40
2019-03-15T03:44:22.656Z,2.97
2019-03-15T03:47:26.507Z,3.00
2019-03-15T03:50:30.149Z,2.90
2019-03-15T03:53:33.926Z,3.90
2019-03-15T03:56:37.677Z,2.80
2019-03-15T03:59:41.344Z,2.97
2019-03-15T04:02:45.348Z,3.10
2019-03-15T04:05:49.249Z,3.20
2019-03-15T04:08:52.917Z,3.10
2019-03-15T04:11:56.585Z,3.87
2019-03-15T04:15:00.346Z,3.37
2019-03-15T04:18:06.514Z,3.60
2019-03-15T04:21:09.677Z,3.87
2019-03-15T04:24:13.348Z,3.30
2019-03-15T04:27:17.005Z,3.50
2019-03-15T04:30:21.005Z,3.27
2019-03-15T04:33:24.672Z,3.37
2019-03-15T04:36:30.162Z,3.27
2019-03-15T04:39:33.933Z,4.03
2019-03-15T04:42:37.631Z,3.30
2019-03-15T04:45:41.313Z,3.90
2019-03-15T04:48:45.010Z,3.00
2019-03-15T04:51:48.699Z,3.50
2019-03-15T04:54:52.405Z,3.50
2019-03-15T04:57:56.089Z,2.97
2019-03-15T05:00:59.734Z,2.90
2019-03-15T05:04:03.421Z,2.97
2019-03-15T05:07:07.097Z,3.77
2019-03-15T05:10:11.092Z,3.90
2019-03-15T05:13:14.760Z,3.47
2019-03-15T05:16:18.422Z,3.08
2019-03-15T05:19:22.085Z,3.10
2019-03-15T05:22:26.076Z,2.77
2019-03-15T05:25:30.139Z,3.10
2019-03-15T05:28:34.083Z,3.00
2019-03-15T05:31:37.994Z,3.12
2019-03-15T05:34:41.689Z,2.90
2019-03-15T05:37:45.365Z,3.00
2019-03-15T05:40:49.299Z,3.40
2019-03-15T05:43:53.335Z,3.33
2019-03-15T05:46:57.002Z,3.03
2019-03-15T05:50:00.681Z,3.27
2019-03-15T05:53:04.458Z,3.60
2019-03-15T05:56:08.897Z,3.80
2019-03-15T05:59:12.606Z,3.63
2019-03-15T06:02:16.257Z,3.60
2019-03-15T06:05:19.924Z,3.83
2019-03-15T06:08:23.890Z,3.53
2019-03-15T06:11:29.215Z,3.43
2019-03-15T06:14:32.876Z,3.37
2019-03-15T06:17:36.857Z,3.50
2019-03-15T06:20:41.385Z,3.45
2019-03-15T06:23:45.082Z,3.83
2019-03-15T06:26:48.812Z,3.47
2019-03-15T06:29:52.526Z,3.57
2019-03-15T06:32:56.366Z,4.17
2019-03-15T06:36:00.006Z,3.85
2019-03-15T06:39:05.351Z,3.83
2019-03-15T06:42:09.121Z,3.90
2019-03-15T06:45:13.014Z,3.53
2019-03-15T06:48:16.770Z,3.50
2019-03-15T06:51:20.460Z,3.90
2019-03-15T06:54:24.149Z,3.63
2019-03-15T06:57:28.070Z,3.43
2019-03-15T07:00:31.743Z,3.53
2019-03-15T07:03:35.456Z,3.67
2019-03-15T07:06:39.330Z,3.83
2019-03-15T07:09:42.997Z,4.37
2019-03-15T07:12:46.702Z,4.30
2019-03-15T07:15:50.404Z,4.43
2019-03-15T07:18:54.125Z,4.23
2019-03-15T07:21:57.845Z,4.70
2019-03-15T07:25:01.556Z,4.30
2019-03-15T07:28:05.425Z,4.37
2019-03-15T07:31:09.126Z,4.07
2019-03-15T07:34:14.010Z,4.00
2019-03-15T07:37:17.944Z,4.10
2019-03-15T07:40:21.937Z,4.10
2019-03-15T07:43:25.638Z,3.87
2019-03-15T07:46:29.316Z,4.40
2019-03-15T07:49:33.010Z,4.67
2019-03-15T07:52:36.807Z,3.53
2019-03-15T07:55:40.566Z,4.28
2019-03-15T07:58:44.230Z,4.27
2019-03-15T08:01:47.929Z,4.20
2019-03-15T08:04:51.610Z,3.67
2019-03-15T08:07:56.334Z,3.80
2019-03-15T08:11:00.026Z,3.87
2019-03-15T08:14:03.640Z,3.77
2019-03-15T08:17:07.938Z,3.60
2019-03-15T08:20:11.802Z,3.22
2019-03-15T08:23:15.468Z,4.30
2019-03-15T08:26:19.186Z,3.45
2019-03-15T08:29:22.869Z,3.97
2019-03-15T08:32:26.576Z,4.40
2019-03-15T08:35:30.741Z,3.70
2019-03-15T08:38:46.718Z,3.93
2019-03-15T08:41:39.913Z,3.57
2019-03-15T08:44:43.644Z,4.17
2019-03-15T08:47:47.385Z,3.90
2019-03-15T08:50:51.348Z,3.87
2019-03-15T08:53:55.017Z,4.70
2019-03-15T08:56:59.823Z,4.10
2019-03-15T09:00:03.626Z,3.87
2019-03-15T09:03:07.369Z,4.20
2019-03-15T09:06:11.171Z,3.90
2019-03-15T09:09:14.819Z,4.70
2019-03-15T09:12:18.821Z,4.43
2019-03-15T09:15:22.498Z,4.58
2019-03-15T09:18:26.217Z,3.97
2019-03-15T09:21:29.921Z,4.50
2019-03-15T09:24:33.598Z,3.77
2019-03-15T09:27:37.269Z,4.53
2019-03-15T09:30:40.916Z,4.50
2019-03-15T09:33:44.619Z,4.43
2019-03-15T09:36:50.408Z,5.40
2019-03-15T09:39:53.837Z,5.73
2019-03-15T09:42:59.896Z,5.43
2019-03-15T09:46:02.926Z,5.23
2019-03-15T09:49:06.557Z,4.97
2019-03-15T09:52:10.242Z,5.97
2019-03-15T09:55:14.029Z,5.30
2019-03-15T09:58:17.687Z,5.60
2019-03-15T10:01:34.162Z,5.37
2019-03-15T10:04:26.765Z,5.33
2019-03-15T10:07:38.388Z,5.40
2019-03-15T10:10:36.862Z,4.93
2019-03-15T10:13:40.530Z,5.07
2019-03-15T10:16:44.237Z,5.30
2019-03-15T10:19:47.910Z,4.97
2019-03-15T10:23:04.710Z,5.00
2019-03-15T10:25:57.017Z,5.17
2019-03-15T10:29:14.238Z,5.13
2019-03-15T10:32:06.182Z,4.80
2019-03-15T10:35:09.825Z,4.63
2019-03-15T10:38:16.510Z,4.90
2019-03-15T10:41:18.920Z,5.03
2019-03-15T10:44:22.734Z,5.50
2019-03-15T10:47:26.956Z,5.20
2019-03-15T10:50:30.655Z,4.30
2019-03-15T10:53:34.875Z,4.37
2019-03-15T10:56:38.611Z,4.93
2019-03-15T10:59:42.277Z,4.40
2019-03-15T11:02:45.956Z,4.40
2019-03-15T11:05:49.654Z,4.80
2019-03-15T11:08:53.509Z,4.33
2019-03-15T11:11:57.217Z,5.07
2019-03-15T11:15:00.959Z,5.20
2019-03-15T11:18:04.632Z,4.17
2019-03-15T11:21:08.320Z,4.83
2019-03-15T11:24:11.990Z,4.33
2019-03-15T11:27:16.600Z,4.47
2019-03-15T11:30:20.352Z,5.07
2019-03-15T11:33:24.045Z,4.33
2019-03-15T11:36:27.766Z,3.90
2019-03-15T11:39:31.429Z,4.47
2019-03-15T11:42:35.149Z,4.43
2019-03-15T11:45:39.068Z,4.97
2019-03-15T11:48:42.732Z,4.67
2019-03-15T11:51:46.474Z,4.67
2019-03-15T11:54:50.183Z,4.33
2019-03-15T11:57:53.912Z,4.60
2019-03-15T12:00:57.684Z,5.27
2019-03-15T12:04:01.363Z,4.50
2019-03-15T12:07:05.090Z,5.20
2019-03-15T12:10:09.107Z,4.80
2019-03-15T12:13:12.806Z,4.43
2019-03-15T12:16:16.461Z,4.40
2019-03-15T12:19:21.402Z,5.30
2019-03-15T12:22:25.165Z,4.80
2019-03-15T12:25:31.320Z,4.47
2019-03-15T12:28:34.389Z,4.27
2019-03-15T12:31:38.361Z,4.83
2019-03-15T12:34:42.005Z,4.42
2019-03-15T12:37:45.865Z,5.00
2019-03-15T12:40:50.058Z,4.80
2019-03-15T12:43:53.829Z,5.57
2019-03-15T12:46:57.518Z,6.20
2019-03-15T12:50:01.767Z,5.30
2019-03-15T12:53:05.530Z,5.53
2019-03-15T12:56:11.049Z,5.35
2019-03-15T12:59:15.318Z,5.07
2019-03-15T13:02:20.486Z,5.47
2019-03-15T13:05:24.329Z,5.87
2019-03-15T13:08:27.989Z,5.83
2019-03-15T13:11:31.888Z,5.47
2019-03-15T13:14:36.154Z,5.60
2019-03-15T13:17:39.878Z,6.50
2019-03-15T13:20:43.619Z,5.50
2019-03-15T13:23:47.266Z,5.97
2019-03-15T13:26:50.966Z,6.30
2019-03-15T13:29:55.634Z,5.80
2019-03-15T13:32:59.381Z,5.30
2019-03-15T13:36:05.837Z,5.50
2019-03-15T13:39:09.529Z,5.33
2019-03-15T13:42:13.458Z,4.47
2019-03-15T13:45:17.291Z,4.43
2019-03-15T13:48:21.021Z,3.97
2019-03-15T13:51:24.762Z,4.10
2019-03-15T13:54:28.469Z,4.80
2019-03-15T13:57:32.230Z,5.10
2019-03-15T14:00:39.032Z,4.90
2019-03-15T14:03:41.817Z,4.80
2019-03-15T14:06:45.630Z,4.60
2019-03-15T14:09:50.192Z,4.62
2019-03-15T14:12:54.124Z,4.60
2019-03-15T14:16:01.179Z,4.90
2019-03-15T14:19:03.518Z,4.97
2019-03-15T14:22:07.693Z,5.10
2019-03-15T14:25:11.833Z,5.07
2019-03-15T14:28:15.729Z,5.10
2019-03-15T14:31:21.610Z,5.90
2019-03-15T14:34:25.013Z,5.47
2019-03-15T14:37:28.885Z,6.70
2019-03-15T14:40:32.859Z,6.60
2019-03-15T14:43:36.658Z,6.40
2019-03-15T14:46:40.716Z,7.23
2019-03-15T14:49:44.705Z,7.30
2019-03-15T14:52:48.474Z,7.00
2019-03-15T14:55:52.141Z,7.20
2019-03-15T14:58:55.918Z,7.50
2019-03-15T15:02:00.482Z,7.20
2019-03-15T15:05:05.062Z,7.67
2019-03-15T15:08:08.941Z,6.95
2019-03-15T15:11:12.625Z,6.67
2019-03-15T15:14:16.374Z,6.43
2019-03-15T15:17:20.054Z,6.73
2019-03-15T15:20:24.102Z,6.58
2019-03-15T15:23:52.760Z,6.77
2019-03-15T15:26:56.519Z,6.47
2019-03-15T15:30:04.255Z,6.43
2019-03-15T15:33:08.000Z,6.17
2019-03-15T15:36:11.833Z,6.65
2019-03-15T15:39:16.977Z,5.67
2019-03-15T15:42:20.722Z,5.60
2019-03-15T15:45:24.514Z,6.00
2019-03-15T15:48:28.333Z,6.13
2019-03-15T15:51:32.986Z,5.10
2019-03-15T15:54:36.811Z,5.30
2019-03-15T15:57:40.614Z,4.60
2019-03-15T16:00:44.582Z,5.23
2019-03-15T16:03:48.635Z,5.10
2019-03-15T16:06:52.414Z,4.90
2019-03-15T16:09:56.209Z,4.40
2019-03-15T16:13:02.613Z,4.80
2019-03-15T16:16:05.429Z,4.70
2019-03-15T16:19:09.192Z,4.87
2019-03-15T16:22:12.912Z,4.30
2019-03-15T16:25:16.612Z,4.00
2019-03-15T16:28:31.046Z,4.20
2019-03-15T16:31:26.273Z,3.87
2019-03-15T16:34:30.206Z,4.20
2019-03-15T16:37:33.982Z,3.90
2019-03-15T16:40:37.732Z,3.97
2019-03-15T16:43:41.496Z,4.83
2019-03-15T16:46:45.206Z,4.43
2019-03-15T16:49:48.895Z,4.13
2019-03-15T16:52:52.886Z,4.80
2019-03-15T16:55:56.587Z,4.80
2019-03-15T16:59:00.304Z,4.70
2019-03-15T17:02:04.091Z,4.03
2019-03-15T17:05:09.711Z,3.40
2019-03-15T17:08:13.549Z,3.40
2019-03-15T17:11:17.479Z,3.60
2019-03-15T17:14:25.766Z,3.30
2019-03-15T17:17:26.873Z,3.63
2019-03-15T17:20:33.986Z,3.70
2019-03-15T17:23:38.037Z,4.17
2019-03-15T17:26:41.853Z,3.67
2019-03-15T17:29:45.586Z,3.60
2019-03-15T17:32:49.396Z,3.73
2019-03-15T17:35:53.120Z,3.53
2019-03-15T17:38:56.906Z,3.17
2019-03-15T17:42:00.628Z,3.10
2019-03-15T17:45:05.002Z,2.95
2019-03-15T17:48:08.842Z,3.10
2019-03-15T17:51:12.751Z,2.53
2019-03-15T17:54:16.554Z,2.80
2019-03-15T17:57:20.452Z,2.60
2019-03-15T18:00:33.452Z,2.90
2019-03-15T18:03:37.523Z,2.60
2019-03-15T18:06:41.261Z,2.60
2019-03-15T18:09:45.228Z,3.03
2019-03-15T18:12:49.005Z,2.63
2019-03-15T18:15:53.074Z,2.30
2019-03-15T18:18:56.757Z,2.40
2019-03-15T18:22:00.590Z,2.63
2019-03-15T18:25:04.645Z,2.53
2019-03-15T18:28:08.384Z,2.37
2019-03-15T18:31:12.093Z,2.97
2019-03-15T18:34:15.873Z,2.70
2019-03-15T18:37:19.649Z,2.37
2019-03-15T18:40:23.397Z,2.50
2019-03-15T18:43:27.350Z,2.70
2019-03-15T18:46:31.309Z,2.57
2019-03-15T18:49:35.186Z,2.58
2019-03-15T18:52:39.017Z,2.75
2019-03-15T18:55:42.924Z,2.70
2019-03-15T18:58:46.730Z,2.70
2019-03-15T19:01:50.545Z,2.80
2019-03-15T19:04:54.298Z,2.50
2019-03-15T19:07:58.269Z,2.60
2019-03-15T19:11:02.018Z,2.47
2019-03-15T19:14:05.877Z,2.33
2019-03-15T19:17:12.065Z,2.13
2019-03-15T19:20:15.904Z,2.30
2019-03-15T19:23:19.701Z,2.33
2019-03-15T19:26:23.486Z,2.40
2019-03-15T19:29:27.249Z,2.40
2019-03-15T19:32:33.514Z,2.00
2019-03-15T19:35:37.406Z,2.40
2019-03-15T19:38:41.172Z,2.42
2019-03-15T19:41:44.992Z,2.20
2019-03-15T19:44:48.946Z,2.30
2019-03-15T19:47:52.743Z,2.47
2019-03-15T19:50:56.445Z,2.52
2019-03-15T19:54:00.209Z,2.30
2019-03-15T19:57:04.160Z,2.40
2019-03-15T20:00:09.668Z,2.50
2019-03-15T20:03:13.407Z,2.53
2019-03-15T20:06:17.396Z,2.50
2019-03-15T20:09:21.102Z,2.60
2019-03-15T20:12:24.845Z,2.93
2019-03-15T20:15:28.627Z,2.67
2019-03-15T20:18:32.802Z,3.08
2019-03-15T20:21:36.578Z,2.87
2019-03-15T20:24:40.286Z,2.70
2019-03-15T20:27:44.125Z,2.67
2019-03-15T20:30:52.296Z,2.63
2019-03-15T20:33:53.518Z,2.30
2019-03-15T20:36:57.273Z,2.73
2019-03-15T20:40:01.069Z,3.10
2019-03-15T20:43:04.751Z,2.73
2019-03-15T20:46:08.457Z,2.40
2019-03-15T20:49:12.181Z,2.60
2019-03-15T20:52:15.904Z,3.20
2019-03-15T20:55:19.553Z,2.77
2019-03-15T20:58:23.261Z,3.53
2019-03-15T21:01:26.937Z,3.23
2019-03-15T21:04:30.596Z,2.73
2019-03-15T21:07:34.297Z,2.93
2019-03-15T21:10:37.994Z,3.10
2019-03-15T21:13:41.677Z,3.40
2019-03-15T21:16:45.630Z,3.93
2019-03-15T21:19:49.277Z,3.20
2019-03-15T21:22:52.972Z,3.60
2019-03-15T21:25:56.655Z,2.90
2019-03-15T21:29:00.394Z,3.23
2019-03-15T21:32:04.148Z,3.10
2019-03-15T21:35:08.449Z,3.00
2019-03-15T21:38:13.047Z,3.83
2019-03-15T21:41:16.796Z,3.43
2019-03-15T21:44:20.508Z,3.00
2019-03-15T21:47:24.273Z,3.67
2019-03-15T21:50:27.948Z,3.70
2019-03-15T21:53:31.625Z,2.73
2019-03-15T21:56:35.488Z,3.20
2019-03-15T21:59:39.292Z,2.90
2019-03-15T22:02:43.127Z,3.57
2019-03-15T22:05:46.821Z,3.07
2019-03-15T22:08:50.812Z,3.60
2019-03-15T22:11:54.818Z,3.80
2019-03-15T22:14:58.814Z,3.30
2019-03-15T22:18:04.185Z,3.87
2019-03-15T22:21:08.790Z,3.50
2019-03-15T22:24:13.041Z,3.40
2019-03-15T22:27:17.137Z,3.67
2019-03-15T22:30:20.909Z,3.23
2019-03-15T22:33:24.893Z,3.17
2019-03-15T22:36:28.587Z,3.27
2019-03-15T22:39:32.348Z,3.17
2019-03-15T22:42:36.028Z,3.67
2019-03-15T22:45:39.698Z,3.53
2019-03-15T22:48:43.338Z,3.57
2019-03-15T22:51:47.079Z,3.07
2019-03-15T22:54:50.816Z,3.47
2019-03-15T22:57:59.920Z,3.63
2019-03-15T23:00:59.981Z,3.90
2019-03-15T23:04:03.711Z,3.30
2019-03-15T23:07:07.377Z,3.67
2019-03-15T23:10:11.136Z,3.97
2019-03-15T23:13:14.849Z,3.57
2019-03-15T23:16:19.428Z,3.25
2019-03-15T23:19:23.111Z,3.50
2019-03-15T23:22:26.819Z,3.77
2019-03-15T23:25:30.550Z,3.30
2019-03-15T23:28:34.349Z,3.43
2019-03-15T23:31:43.504Z,3.73
2019-03-15T23:34:43.392Z,3.67
2019-03-15T23:37:47.059Z,3.43
2019-03-15T23:40:50.986Z,3.60
2019-03-15T23:43:54.705Z,3.37
2019-03-15T23:46:58.400Z,4.07
2019-03-15T23:50:02.337Z,3.80
2019-03-15T23:53:06.034Z,4.10
2019-03-15T23:56:09.717Z,3.20
2019-03-15T23:59:14.104Z,3.58
